sensor_id;sensor_type;location;lat;lon;timestamp;temperature;humidity
3690;DHT22;1861;50.240;8.596;2023-11-18T00:00:23;8.40;99.90
3690;DHT22;1861;50.240;8.596;2023-11-18T00:02:51;8.30;99.90
3690;DHT22;1861;50.240;8.596;2023-11-18T00:05:20;8.20;99.90
3690;DHT22;1861;50.240;8.596;2023-11-18T00:07:48;8.20;99.90
3690;DHT22;1861;50.240;8.596;2023-11-18T00:10:18;8.20;99.90
3690;DHT22;1861;50.240;8.596;2023-11-18T00:12:46;8.30;99.90
3690;DHT22;1861;50.240;8.596;2023-11-18T00:15:14;8.30;99.90
3690;DHT22;1861;50.240;8.596;2023-11-18T00:17:42;8.20;99.90
3690;DHT22;1861;50.240;8.596;2023-11-18T00:20:11;8.20;99.90
3690;DHT22;1861;50.240;8.596;2023-11-18T00:22:40;8.10;99.90
3690;DHT22;1861;50.240;8.596;2023-11-18T00:25:09;8.10;99.90
3690;DHT22;1861;50.240;8.596;2023-11-18T00:27:39;8.10;99.90
3690;DHT22;1861;50.240;8.596;2023-11-18T00:30:07;8.10;99.90
3690;DHT22;1861;50.240;8.596;2023-11-18T00:32:38;8.10;99.90
3690;DHT22;1861;50.240;8.596;2023-11-18T00:35:07;8.00;99.90
3690;DHT22;1861;50.240;8.596;2023-11-18T00:37:37;7.90;99.90
3690;DHT22;1861;50.240;8.596;2023-11-18T00:40:07;7.90;99.90
3690;DHT22;1861;50.240;8.596;2023-11-18T00:42:35;7.90;99.90
3690;DHT22;1861;50.240;8.596;2023-11-18T00:45:06;7.90;99.90
3690;DHT22;1861;50.240;8.596;2023-11-18T00:47:35;7.90;99.90
3690;DHT22;1861;50.240;8.596;2023-11-18T00:50:04;7.80;99.90
3690;DHT22;1861;50.240;8.596;2023-11-18T00:52:35;7.80;99.90
3690;DHT22;1861;50.240;8.596;2023-11-18T00:55:06;7.70;99.90
3690;DHT22;1861;50.240;8.596;2023-11-18T00:57:35;7.60;99.90
3690;DHT22;1861;50.240;8.596;2023-11-18T01:00:11;7.60;99.90
3690;DHT22;1861;50.240;8.596;2023-11-18T01:02:41;7.70;99.90
3690;DHT22;1861;50.240;8.596;2023-11-18T01:05:10;7.80;99.90
3690;DHT22;1861;50.240;8.596;2023-11-18T01:07:40;7.80;99.90
3690;DHT22;1861;50.240;8.596;2023-11-18T01:10:09;7.70;99.90
3690;DHT22;1861;50.240;8.596;2023-11-18T01:12:38;7.60;99.90
3690;DHT22;1861;50.240;8.596;2023-11-18T01:15:08;7.60;99.90
3690;DHT22;1861;50.240;8.596;2023-11-18T01:17:38;7.60;99.90
3690;DHT22;1861;50.240;8.596;2023-11-18T01:20:07;7.60;99.90
3690;DHT22;1861;50.240;8.596;2023-11-18T01:22:38;7.60;99.90
3690;DHT22;1861;50.240;8.596;2023-11-18T01:25:07;7.50;99.90
3690;DHT22;1861;50.240;8.596;2023-11-18T01:27:36;7.50;99.90
3690;DHT22;1861;50.240;8.596;2023-11-18T01:30:07;7.50;99.90
3690;DHT22;1861;50.240;8.596;2023-11-18T01:32:37;7.50;99.90
3690;DHT22;1861;50.240;8.596;2023-11-18T01:35:08;7.50;99.90
3690;DHT22;1861;50.240;8.596;2023-11-18T01:37:37;7.50;99.90
3690;DHT22;1861;50.240;8.596;2023-11-18T01:40:06;7.70;99.90
3690;DHT22;1861;50.240;8.596;2023-11-18T01:42:35;7.60;99.90
3690;DHT22;1861;50.240;8.596;2023-11-18T01:45:04;7.70;99.90
3690;DHT22;1861;50.240;8.596;2023-11-18T01:47:40;7.80;99.90
3690;DHT22;1861;50.240;8.596;2023-11-18T01:50:10;7.70;99.90
3690;DHT22;1861;50.240;8.596;2023-11-18T01:52:41;7.50;99.90
3690;DHT22;1861;50.240;8.596;2023-11-18T01:55:13;7.30;99.90
3690;DHT22;1861;50.240;8.596;2023-11-18T01:57:41;7.60;99.90
3690;DHT22;1861;50.240;8.596;2023-11-18T02:00:12;7.70;99.90
3690;DHT22;1861;50.240;8.596;2023-11-18T02:02:45;7.60;99.90
3690;DHT22;1861;50.240;8.596;2023-11-18T02:05:15;7.60;99.90
3690;DHT22;1861;50.240;8.596;2023-11-18T02:07:45;7.50;99.90
3690;DHT22;1861;50.240;8.596;2023-11-18T02:10:14;7.50;99.90
3690;DHT22;1861;50.240;8.596;2023-11-18T02:12:46;7.50;99.90
3690;DHT22;1861;50.240;8.596;2023-11-18T02:15:21;7.50;99.90
3690;DHT22;1861;50.240;8.596;2023-11-18T02:17:53;7.50;99.90
3690;DHT22;1861;50.240;8.596;2023-11-18T02:20:21;7.60;99.90
3690;DHT22;1861;50.240;8.596;2023-11-18T02:22:51;7.40;99.90
3690;DHT22;1861;50.240;8.596;2023-11-18T02:25:21;7.40;99.90
3690;DHT22;1861;50.240;8.596;2023-11-18T02:27:55;7.40;99.90
3690;DHT22;1861;50.240;8.596;2023-11-18T02:30:23;7.30;99.90
3690;DHT22;1861;50.240;8.596;2023-11-18T02:32:58;7.30;99.90
3690;DHT22;1861;50.240;8.596;2023-11-18T02:35:32;7.20;99.90
3690;DHT22;1861;50.240;8.596;2023-11-18T02:38:04;7.30;99.90
3690;DHT22;1861;50.240;8.596;2023-11-18T02:40:36;7.10;99.90
3690;DHT22;1861;50.240;8.596;2023-11-18T02:43:07;7.20;99.90
3690;DHT22;1861;50.240;8.596;2023-11-18T02:45:37;7.20;99.90
3690;DHT22;1861;50.240;8.596;2023-11-18T02:48:06;7.30;99.90
3690;DHT22;1861;50.240;8.596;2023-11-18T02:50:35;7.30;99.90
3690;DHT22;1861;50.240;8.596;2023-11-18T02:53:04;7.20;99.90
3690;DHT22;1861;50.240;8.596;2023-11-18T02:55:32;7.30;99.90
3690;DHT22;1861;50.240;8.596;2023-11-18T02:58:01;7.20;99.90
3690;DHT22;1861;50.240;8.596;2023-11-18T03:00:34;7.20;99.90
3690;DHT22;1861;50.240;8.596;2023-11-18T03:03:02;7.00;99.90
3690;DHT22;1861;50.240;8.596;2023-11-18T03:05:30;7.10;99.90
3690;DHT22;1861;50.240;8.596;2023-11-18T03:07:59;7.30;99.90
3690;DHT22;1861;50.240;8.596;2023-11-18T03:10:28;7.40;99.90
3690;DHT22;1861;50.240;8.596;2023-11-18T03:12:57;7.20;99.90
3690;DHT22;1861;50.240;8.596;2023-11-18T03:15:25;7.20;99.90
3690;DHT22;1861;50.240;8.596;2023-11-18T03:17:55;7.30;99.90
3690;DHT22;1861;50.240;8.596;2023-11-18T03:20:23;7.40;99.90
3690;DHT22;1861;50.240;8.596;2023-11-18T03:22:53;7.40;99.90
3690;DHT22;1861;50.240;8.596;2023-11-18T03:25:22;7.30;99.90
3690;DHT22;1861;50.240;8.596;2023-11-18T03:27:50;7.40;99.90
3690;DHT22;1861;50.240;8.596;2023-11-18T03:30:21;7.50;99.90
3690;DHT22;1861;50.240;8.596;2023-11-18T03:32:49;7.50;99.90
3690;DHT22;1861;50.240;8.596;2023-11-18T03:35:19;7.60;99.90
3690;DHT22;1861;50.240;8.596;2023-11-18T03:37:47;7.70;99.90
3690;DHT22;1861;50.240;8.596;2023-11-18T03:40:15;7.70;99.90
3690;DHT22;1861;50.240;8.596;2023-11-18T03:42:44;7.70;99.90
3690;DHT22;1861;50.240;8.596;2023-11-18T03:45:13;7.70;99.90
3690;DHT22;1861;50.240;8.596;2023-11-18T03:47:42;7.60;99.90
3690;DHT22;1861;50.240;8.596;2023-11-18T03:50:10;7.80;99.90
3690;DHT22;1861;50.240;8.596;2023-11-18T03:52:41;7.70;99.90
3690;DHT22;1861;50.240;8.596;2023-11-18T03:55:10;7.70;99.90
3690;DHT22;1861;50.240;8.596;2023-11-18T03:57:39;7.70;99.90
3690;DHT22;1861;50.240;8.596;2023-11-18T04:00:08;7.80;99.90
3690;DHT22;1861;50.240;8.596;2023-11-18T04:02:39;7.80;99.90
3690;DHT22;1861;50.240;8.596;2023-11-18T04:05:08;7.80;99.90
3690;DHT22;1861;50.240;8.596;2023-11-18T04:07:37;7.80;99.90
3690;DHT22;1861;50.240;8.596;2023-11-18T04:10:10;7.80;99.90
3690;DHT22;1861;50.240;8.596;2023-11-18T04:12:39;7.80;99.90
3690;DHT22;1861;50.240;8.596;2023-11-18T04:15:07;7.80;99.90
3690;DHT22;1861;50.240;8.596;2023-11-18T04:17:38;7.80;99.90
3690;DHT22;1861;50.240;8.596;2023-11-18T04:20:10;7.80;99.90
3690;DHT22;1861;50.240;8.596;2023-11-18T04:22:40;7.80;99.90
3690;DHT22;1861;50.240;8.596;2023-11-18T04:25:09;7.70;99.90
3690;DHT22;1861;50.240;8.596;2023-11-18T04:27:38;7.70;99.90
3690;DHT22;1861;50.240;8.596;2023-11-18T04:30:12;7.70;99.90
3690;DHT22;1861;50.240;8.596;2023-11-18T04:32:41;7.70;99.90
3690;DHT22;1861;50.240;8.596;2023-11-18T04:35:10;7.60;99.90
3690;DHT22;1861;50.240;8.596;2023-11-18T04:37:40;7.60;99.90
3690;DHT22;1861;50.240;8.596;2023-11-18T04:40:12;7.70;99.90
3690;DHT22;1861;50.240;8.596;2023-11-18T04:42:40;7.70;99.90
3690;DHT22;1861;50.240;8.596;2023-11-18T04:45:11;7.70;99.90
3690;DHT22;1861;50.240;8.596;2023-11-18T04:47:41;7.70;99.90
3690;DHT22;1861;50.240;8.596;2023-11-18T04:50:11;7.80;99.90
3690;DHT22;1861;50.240;8.596;2023-11-18T04:52:39;7.80;99.90
3690;DHT22;1861;50.240;8.596;2023-11-18T04:55:08;7.90;99.90
3690;DHT22;1861;50.240;8.596;2023-11-18T04:57:41;7.70;99.90
3690;DHT22;1861;50.240;8.596;2023-11-18T05:00:11;7.80;99.90
3690;DHT22;1861;50.240;8.596;2023-11-18T05:02:43;7.90;99.90
3690;DHT22;1861;50.240;8.596;2023-11-18T05:05:14;7.90;99.90
3690;DHT22;1861;50.240;8.596;2023-11-18T05:07:43;7.80;99.90
3690;DHT22;1861;50.240;8.596;2023-11-18T05:10:11;7.90;99.90
3690;DHT22;1861;50.240;8.596;2023-11-18T05:12:41;7.90;99.90
3690;DHT22;1861;50.240;8.596;2023-11-18T05:15:10;7.80;99.90
3690;DHT22;1861;50.240;8.596;2023-11-18T05:17:39;7.80;99.90
3690;DHT22;1861;50.240;8.596;2023-11-18T05:20:08;7.70;99.90
3690;DHT22;1861;50.240;8.596;2023-11-18T05:22:38;7.60;99.90
3690;DHT22;1861;50.240;8.596;2023-11-18T05:25:06;7.70;99.90
3690;DHT22;1861;50.240;8.596;2023-11-18T05:27:36;7.70;99.90
3690;DHT22;1861;50.240;8.596;2023-11-18T05:30:09;7.60;99.90
3690;DHT22;1861;50.240;8.596;2023-11-18T05:32:38;7.60;99.90
3690;DHT22;1861;50.240;8.596;2023-11-18T05:35:07;7.60;99.90
3690;DHT22;1861;50.240;8.596;2023-11-18T05:37:38;7.60;99.90
3690;DHT22;1861;50.240;8.596;2023-11-18T05:40:09;7.60;99.90
3690;DHT22;1861;50.240;8.596;2023-11-18T05:42:42;7.70;99.90
3690;DHT22;1861;50.240;8.596;2023-11-18T05:45:14;7.80;99.90
3690;DHT22;1861;50.240;8.596;2023-11-18T05:47:54;7.70;99.90
3690;DHT22;1861;50.240;8.596;2023-11-18T05:50:24;7.60;99.90
3690;DHT22;1861;50.240;8.596;2023-11-18T05:52:53;7.60;99.90
3690;DHT22;1861;50.240;8.596;2023-11-18T05:55:22;7.70;99.90
3690;DHT22;1861;50.240;8.596;2023-11-18T05:57:50;7.70;99.90
3690;DHT22;1861;50.240;8.596;2023-11-18T06:00:20;7.80;99.90
3690;DHT22;1861;50.240;8.596;2023-11-18T06:02:59;7.80;99.90
3690;DHT22;1861;50.240;8.596;2023-11-18T06:05:27;7.80;99.90
3690;DHT22;1861;50.240;8.596;2023-11-18T06:07:56;7.70;99.90
3690;DHT22;1861;50.240;8.596;2023-11-18T06:10:26;7.70;99.90
3690;DHT22;1861;50.240;8.596;2023-11-18T06:12:55;7.80;99.90
3690;DHT22;1861;50.240;8.596;2023-11-18T06:15:26;7.80;99.90
3690;DHT22;1861;50.240;8.596;2023-11-18T06:17:55;7.80;99.90
3690;DHT22;1861;50.240;8.596;2023-11-18T06:20:23;7.90;99.90
3690;DHT22;1861;50.240;8.596;2023-11-18T06:22:51;7.80;99.90
3690;DHT22;1861;50.240;8.596;2023-11-18T06:25:19;7.80;99.90
3690;DHT22;1861;50.240;8.596;2023-11-18T06:27:49;7.70;99.90
3690;DHT22;1861;50.240;8.596;2023-11-18T06:30:17;7.80;99.90
3690;DHT22;1861;50.240;8.596;2023-11-18T06:32:48;7.80;99.90
3690;DHT22;1861;50.240;8.596;2023-11-18T06:35:16;7.80;99.90
3690;DHT22;1861;50.240;8.596;2023-11-18T06:37:44;7.80;99.90
3690;DHT22;1861;50.240;8.596;2023-11-18T06:40:13;7.90;99.90
3690;DHT22;1861;50.240;8.596;2023-11-18T06:42:45;7.90;99.90
3690;DHT22;1861;50.240;8.596;2023-11-18T06:45:14;7.80;99.90
3690;DHT22;1861;50.240;8.596;2023-11-18T06:47:43;7.90;99.90
3690;DHT22;1861;50.240;8.596;2023-11-18T06:50:14;7.80;99.90
3690;DHT22;1861;50.240;8.596;2023-11-18T06:52:43;7.80;99.90
3690;DHT22;1861;50.240;8.596;2023-11-18T06:55:15;7.80;99.90
3690;DHT22;1861;50.240;8.596;2023-11-18T06:57:43;7.80;99.90
3690;DHT22;1861;50.240;8.596;2023-11-18T07:00:12;7.80;99.90
3690;DHT22;1861;50.240;8.596;2023-11-18T07:02:41;7.90;99.90
3690;DHT22;1861;50.240;8.596;2023-11-18T07:05:09;7.80;99.90
3690;DHT22;1861;50.240;8.596;2023-11-18T07:07:43;7.90;99.90
3690;DHT22;1861;50.240;8.596;2023-11-18T07:10:11;7.90;99.90
3690;DHT22;1861;50.240;8.596;2023-11-18T07:12:40;7.90;99.90
3690;DHT22;1861;50.240;8.596;2023-11-18T07:15:09;7.90;99.90
3690;DHT22;1861;50.240;8.596;2023-11-18T07:17:38;8.00;99.90
3690;DHT22;1861;50.240;8.596;2023-11-18T07:20:07;8.00;99.90
3690;DHT22;1861;50.240;8.596;2023-11-18T07:22:39;7.90;99.90
3690;DHT22;1861;50.240;8.596;2023-11-18T07:25:08;7.80;99.90
3690;DHT22;1861;50.240;8.596;2023-11-18T07:27:37;7.90;99.90
3690;DHT22;1861;50.240;8.596;2023-11-18T07:30:06;8.00;99.90
3690;DHT22;1861;50.240;8.596;2023-11-18T07:32:37;7.90;99.90
3690;DHT22;1861;50.240;8.596;2023-11-18T07:35:07;7.90;99.90
3690;DHT22;1861;50.240;8.596;2023-11-18T07:37:36;7.80;99.90
3690;DHT22;1861;50.240;8.596;2023-11-18T07:40:05;7.90;99.90
3690;DHT22;1861;50.240;8.596;2023-11-18T07:42:36;7.90;99.90
3690;DHT22;1861;50.240;8.596;2023-11-18T07:45:05;7.90;99.90
3690;DHT22;1861;50.240;8.596;2023-11-18T07:47:44;8.00;99.90
3690;DHT22;1861;50.240;8.596;2023-11-18T07:50:15;7.90;99.90
3690;DHT22;1861;50.240;8.596;2023-11-18T07:52:44;7.90;99.90
3690;DHT22;1861;50.240;8.596;2023-11-18T07:55:12;7.90;99.90
3690;DHT22;1861;50.240;8.596;2023-11-18T07:57:42;7.80;99.90
3690;DHT22;1861;50.240;8.596;2023-11-18T08:00:11;7.80;99.90
3690;DHT22;1861;50.240;8.596;2023-11-18T08:02:42;7.80;99.90
3690;DHT22;1861;50.240;8.596;2023-11-18T08:05:11;7.90;99.90
3690;DHT22;1861;50.240;8.596;2023-11-18T08:07:42;7.90;99.90
3690;DHT22;1861;50.240;8.596;2023-11-18T08:10:12;7.90;99.90
3690;DHT22;1861;50.240;8.596;2023-11-18T08:12:46;7.90;99.90
3690;DHT22;1861;50.240;8.596;2023-11-18T08:15:15;7.90;99.90
3690;DHT22;1861;50.240;8.596;2023-11-18T08:17:43;7.90;99.90
3690;DHT22;1861;50.240;8.596;2023-11-18T08:20:11;8.00;99.90
3690;DHT22;1861;50.240;8.596;2023-11-18T08:22:42;8.10;99.90
3690;DHT22;1861;50.240;8.596;2023-11-18T08:25:11;8.00;99.90
3690;DHT22;1861;50.240;8.596;2023-11-18T08:27:40;8.10;99.90
3690;DHT22;1861;50.240;8.596;2023-11-18T08:30:11;8.10;99.90
3690;DHT22;1861;50.240;8.596;2023-11-18T08:32:40;8.10;99.90
3690;DHT22;1861;50.240;8.596;2023-11-18T08:35:11;8.10;99.90
3690;DHT22;1861;50.240;8.596;2023-11-18T08:37:41;8.00;99.90
3690;DHT22;1861;50.240;8.596;2023-11-18T08:40:11;8.00;99.90
3690;DHT22;1861;50.240;8.596;2023-11-18T08:42:43;8.00;99.90
3690;DHT22;1861;50.240;8.596;2023-11-18T08:45:18;8.00;99.90
3690;DHT22;1861;50.240;8.596;2023-11-18T08:47:48;8.10;99.90
3690;DHT22;1861;50.240;8.596;2023-11-18T08:50:20;8.10;99.90
3690;DHT22;1861;50.240;8.596;2023-11-18T08:52:51;8.20;99.90
3690;DHT22;1861;50.240;8.596;2023-11-18T08:55:27;8.20;99.90
3690;DHT22;1861;50.240;8.596;2023-11-18T08:58:10;8.10;99.90
3690;DHT22;1861;50.240;8.596;2023-11-18T09:00:51;8.10;99.90
3690;DHT22;1861;50.240;8.596;2023-11-18T09:03:24;8.10;99.90
3690;DHT22;1861;50.240;8.596;2023-11-18T09:05:54;8.10;99.90
3690;DHT22;1861;50.240;8.596;2023-11-18T09:08:27;8.20;99.90
3690;DHT22;1861;50.240;8.596;2023-11-18T09:10:57;8.10;99.90
3690;DHT22;1861;50.240;8.596;2023-11-18T09:13:28;8.10;99.90
3690;DHT22;1861;50.240;8.596;2023-11-18T09:15:59;8.10;99.90
3690;DHT22;1861;50.240;8.596;2023-11-18T09:18:28;8.00;99.90
3690;DHT22;1861;50.240;8.596;2023-11-18T09:20:57;8.20;99.90
3690;DHT22;1861;50.240;8.596;2023-11-18T09:23:29;8.10;99.90
3690;DHT22;1861;50.240;8.596;2023-11-18T09:25:59;8.20;99.90
3690;DHT22;1861;50.240;8.596;2023-11-18T09:28:27;8.20;99.90
3690;DHT22;1861;50.240;8.596;2023-11-18T09:30:58;8.20;99.90
3690;DHT22;1861;50.240;8.596;2023-11-18T09:33:29;8.20;99.90
3690;DHT22;1861;50.240;8.596;2023-11-18T09:36:00;8.20;99.90
3690;DHT22;1861;50.240;8.596;2023-11-18T09:38:29;8.10;99.90
3690;DHT22;1861;50.240;8.596;2023-11-18T09:40:58;8.20;99.90
3690;DHT22;1861;50.240;8.596;2023-11-18T09:43:29;8.10;99.90
3690;DHT22;1861;50.240;8.596;2023-11-18T09:46:04;8.20;99.90
3690;DHT22;1861;50.240;8.596;2023-11-18T09:48:42;8.30;99.90
3690;DHT22;1861;50.240;8.596;2023-11-18T09:51:17;8.40;99.90
3690;DHT22;1861;50.240;8.596;2023-11-18T09:53:50;8.40;99.90
3690;DHT22;1861;50.240;8.596;2023-11-18T09:56:24;8.40;99.90
3690;DHT22;1861;50.240;8.596;2023-11-18T09:59:10;8.40;99.90
3690;DHT22;1861;50.240;8.596;2023-11-18T10:01:47;8.30;99.90
3690;DHT22;1861;50.240;8.596;2023-11-18T10:04:20;8.40;99.90
3690;DHT22;1861;50.240;8.596;2023-11-18T10:06:49;8.40;99.90
3690;DHT22;1861;50.240;8.596;2023-11-18T10:09:20;8.40;99.90
3690;DHT22;1861;50.240;8.596;2023-11-18T10:11:55;8.40;99.90
3690;DHT22;1861;50.240;8.596;2023-11-18T10:14:27;8.50;99.90
3690;DHT22;1861;50.240;8.596;2023-11-18T10:16:58;8.50;99.90
3690;DHT22;1861;50.240;8.596;2023-11-18T10:19:51;8.40;99.90
3690;DHT22;1861;50.240;8.596;2023-11-18T10:22:22;8.40;99.90
3690;DHT22;1861;50.240;8.596;2023-11-18T10:24:51;8.40;99.90
3690;DHT22;1861;50.240;8.596;2023-11-18T10:27:23;8.30;99.90
3690;DHT22;1861;50.240;8.596;2023-11-18T10:29:55;8.40;99.90
3690;DHT22;1861;50.240;8.596;2023-11-18T10:32:25;8.50;99.90
3690;DHT22;1861;50.240;8.596;2023-11-18T10:34:56;8.50;99.90
3690;DHT22;1861;50.240;8.596;2023-11-18T10:37:25;8.50;99.90
3690;DHT22;1861;50.240;8.596;2023-11-18T10:39:57;8.50;99.90
3690;DHT22;1861;50.240;8.596;2023-11-18T10:42:26;8.60;99.90
3690;DHT22;1861;50.240;8.596;2023-11-18T10:44:58;8.60;99.90
3690;DHT22;1861;50.240;8.596;2023-11-18T10:47:28;8.60;99.90
3690;DHT22;1861;50.240;8.596;2023-11-18T10:49:57;8.40;99.90
3690;DHT22;1861;50.240;8.596;2023-11-18T10:52:25;8.50;99.90
3690;DHT22;1861;50.240;8.596;2023-11-18T10:54:58;8.50;99.90
3690;DHT22;1861;50.240;8.596;2023-11-18T10:57:34;8.60;99.90
3690;DHT22;1861;50.240;8.596;2023-11-18T11:00:03;8.60;99.90
3690;DHT22;1861;50.240;8.596;2023-11-18T11:02:41;8.60;99.90
3690;DHT22;1861;50.240;8.596;2023-11-18T11:05:10;8.60;99.90
3690;DHT22;1861;50.240;8.596;2023-11-18T11:07:48;8.60;99.90
3690;DHT22;1861;50.240;8.596;2023-11-18T11:10:17;8.60;99.90
3690;DHT22;1861;50.240;8.596;2023-11-18T11:12:54;8.70;99.90
3690;DHT22;1861;50.240;8.596;2023-11-18T11:15:28;8.70;99.90
3690;DHT22;1861;50.240;8.596;2023-11-18T11:18:20;8.60;99.90
3690;DHT22;1861;50.240;8.596;2023-11-18T11:20:59;8.60;99.90
3690;DHT22;1861;50.240;8.596;2023-11-18T11:23:43;8.60;99.90
3690;DHT22;1861;50.240;8.596;2023-11-18T11:26:28;8.70;99.90
3690;DHT22;1861;50.240;8.596;2023-11-18T11:29:14;8.70;99.90
3690;DHT22;1861;50.240;8.596;2023-11-18T11:31:51;8.70;99.90
3690;DHT22;1861;50.240;8.596;2023-11-18T11:34:26;8.70;99.90
3690;DHT22;1861;50.240;8.596;2023-11-18T11:36:59;8.80;99.90
3690;DHT22;1861;50.240;8.596;2023-11-18T11:39:28;8.70;99.90
3690;DHT22;1861;50.240;8.596;2023-11-18T11:41:59;8.80;99.90
3690;DHT22;1861;50.240;8.596;2023-11-18T11:44:28;8.80;99.90
3690;DHT22;1861;50.240;8.596;2023-11-18T11:46:59;8.80;99.90
3690;DHT22;1861;50.240;8.596;2023-11-18T11:49:36;8.80;99.90
3690;DHT22;1861;50.240;8.596;2023-11-18T11:52:10;8.70;99.90
3690;DHT22;1861;50.240;8.596;2023-11-18T11:54:46;8.60;99.90
3690;DHT22;1861;50.240;8.596;2023-11-18T11:57:17;8.70;99.90
3690;DHT22;1861;50.240;8.596;2023-11-18T11:59:55;8.70;99.90
3690;DHT22;1861;50.240;8.596;2023-11-18T12:02:25;8.80;99.90
3690;DHT22;1861;50.240;8.596;2023-11-18T12:04:58;8.70;99.90
3690;DHT22;1861;50.240;8.596;2023-11-18T12:07:27;8.80;99.90
3690;DHT22;1861;50.240;8.596;2023-11-18T12:09:55;8.80;99.90
3690;DHT22;1861;50.240;8.596;2023-11-18T12:12:25;8.80;99.90
3690;DHT22;1861;50.240;8.596;2023-11-18T12:14:55;8.70;99.90
3690;DHT22;1861;50.240;8.596;2023-11-18T12:17:25;8.80;99.90
3690;DHT22;1861;50.240;8.596;2023-11-18T12:20:00;8.70;99.90
3690;DHT22;1861;50.240;8.596;2023-11-18T12:23:02;8.90;99.90
3690;DHT22;1861;50.240;8.596;2023-11-18T12:25:31;8.80;99.90
3690;DHT22;1861;50.240;8.596;2023-11-18T12:28:10;8.80;99.90
3690;DHT22;1861;50.240;8.596;2023-11-18T12:30:45;8.90;99.90
3690;DHT22;1861;50.240;8.596;2023-11-18T12:34:00;8.90;99.90
3690;DHT22;1861;50.240;8.596;2023-11-18T12:37:03;8.90;99.90
3690;DHT22;1861;50.240;8.596;2023-11-18T12:40:15;8.90;99.90
3690;DHT22;1861;50.240;8.596;2023-11-18T12:43:01;8.80;99.90
3690;DHT22;1861;50.240;8.596;2023-11-18T12:46:12;8.80;99.90
3690;DHT22;1861;50.240;8.596;2023-11-18T12:48:49;8.90;99.90
3690;DHT22;1861;50.240;8.596;2023-11-18T12:51:18;8.90;99.90
3690;DHT22;1861;50.240;8.596;2023-11-18T12:53:51;8.90;99.90
3690;DHT22;1861;50.240;8.596;2023-11-18T12:56:21;9.00;99.90
3690;DHT22;1861;50.240;8.596;2023-11-18T12:58:50;8.90;99.90
3690;DHT22;1861;50.240;8.596;2023-11-18T13:01:19;8.90;99.90
3690;DHT22;1861;50.240;8.596;2023-11-18T13:03:47;9.00;99.90
3690;DHT22;1861;50.240;8.596;2023-11-18T13:06:16;8.90;99.90
3690;DHT22;1861;50.240;8.596;2023-11-18T13:08:44;8.90;99.90
3690;DHT22;1861;50.240;8.596;2023-11-18T13:11:14;9.00;99.90
3690;DHT22;1861;50.240;8.596;2023-11-18T13:13:43;9.00;99.90
3690;DHT22;1861;50.240;8.596;2023-11-18T13:16:12;9.10;99.90
3690;DHT22;1861;50.240;8.596;2023-11-18T13:18:43;9.10;99.90
3690;DHT22;1861;50.240;8.596;2023-11-18T13:21:14;9.00;99.90
3690;DHT22;1861;50.240;8.596;2023-11-18T13:23:48;9.10;99.90
3690;DHT22;1861;50.240;8.596;2023-11-18T13:26:19;9.10;99.90
3690;DHT22;1861;50.240;8.596;2023-11-18T13:28:48;9.10;99.90
3690;DHT22;1861;50.240;8.596;2023-11-18T13:31:17;9.00;99.90
3690;DHT22;1861;50.240;8.596;2023-11-18T13:33:47;9.10;99.90
3690;DHT22;1861;50.240;8.596;2023-11-18T13:36:16;9.10;99.90
3690;DHT22;1861;50.240;8.596;2023-11-18T13:38:47;9.10;99.90
3690;DHT22;1861;50.240;8.596;2023-11-18T13:41:29;9.10;99.90
3690;DHT22;1861;50.240;8.596;2023-11-18T13:43:58;9.10;99.90
3690;DHT22;1861;50.240;8.596;2023-11-18T13:46:27;9.10;99.90
3690;DHT22;1861;50.240;8.596;2023-11-18T13:48:57;9.10;99.90
3690;DHT22;1861;50.240;8.596;2023-11-18T13:51:26;9.00;99.90
3690;DHT22;1861;50.240;8.596;2023-11-18T13:53:54;9.10;99.90
3690;DHT22;1861;50.240;8.596;2023-11-18T13:56:22;9.10;99.90
3690;DHT22;1861;50.240;8.596;2023-11-18T13:58:55;9.10;99.90
3690;DHT22;1861;50.240;8.596;2023-11-18T14:01:25;9.10;99.90
3690;DHT22;1861;50.240;8.596;2023-11-18T14:03:55;9.00;99.90
3690;DHT22;1861;50.240;8.596;2023-11-18T14:06:28;9.00;99.90
3690;DHT22;1861;50.240;8.596;2023-11-18T14:08:58;9.10;99.90
3690;DHT22;1861;50.240;8.596;2023-11-18T14:11:26;9.10;99.90
3690;DHT22;1861;50.240;8.596;2023-11-18T14:13:56;9.10;99.90
3690;DHT22;1861;50.240;8.596;2023-11-18T14:16:25;9.10;99.90
3690;DHT22;1861;50.240;8.596;2023-11-18T14:18:53;9.20;99.90
3690;DHT22;1861;50.240;8.596;2023-11-18T14:21:21;9.10;99.90
3690;DHT22;1861;50.240;8.596;2023-11-18T14:23:49;9.20;99.90
3690;DHT22;1861;50.240;8.596;2023-11-18T14:26:18;9.20;99.90
3690;DHT22;1861;50.240;8.596;2023-11-18T14:28:46;9.10;99.90
3690;DHT22;1861;50.240;8.596;2023-11-18T14:31:15;9.20;99.90
3690;DHT22;1861;50.240;8.596;2023-11-18T14:33:44;9.20;99.90
3690;DHT22;1861;50.240;8.596;2023-11-18T14:36:12;9.20;99.90
3690;DHT22;1861;50.240;8.596;2023-11-18T14:38:41;9.20;99.90
3690;DHT22;1861;50.240;8.596;2023-11-18T14:41:11;9.20;99.90
3690;DHT22;1861;50.240;8.596;2023-11-18T14:43:39;9.30;99.90
3690;DHT22;1861;50.240;8.596;2023-11-18T14:46:08;9.30;99.90
3690;DHT22;1861;50.240;8.596;2023-11-18T14:48:38;9.40;99.90
3690;DHT22;1861;50.240;8.596;2023-11-18T14:51:06;9.40;99.90
3690;DHT22;1861;50.240;8.596;2023-11-18T14:53:34;9.40;99.90
3690;DHT22;1861;50.240;8.596;2023-11-18T14:56:03;9.40;99.90
3690;DHT22;1861;50.240;8.596;2023-11-18T14:58:34;9.30;99.90
3690;DHT22;1861;50.240;8.596;2023-11-18T15:01:03;9.40;99.90
3690;DHT22;1861;50.240;8.596;2023-11-18T15:03:34;9.30;99.90
3690;DHT22;1861;50.240;8.596;2023-11-18T15:06:05;9.30;99.90
3690;DHT22;1861;50.240;8.596;2023-11-18T15:08:33;9.40;99.90
3690;DHT22;1861;50.240;8.596;2023-11-18T15:11:07;9.40;99.90
3690;DHT22;1861;50.240;8.596;2023-11-18T15:13:35;9.40;99.90
3690;DHT22;1861;50.240;8.596;2023-11-18T15:16:04;9.40;99.90
3690;DHT22;1861;50.240;8.596;2023-11-18T15:18:32;9.30;99.90
3690;DHT22;1861;50.240;8.596;2023-11-18T15:21:04;9.40;99.90
3690;DHT22;1861;50.240;8.596;2023-11-18T15:23:32;9.40;99.90
3690;DHT22;1861;50.240;8.596;2023-11-18T15:26:00;9.30;99.90
3690;DHT22;1861;50.240;8.596;2023-11-18T15:28:28;9.40;99.90
3690;DHT22;1861;50.240;8.596;2023-11-18T15:30:58;9.30;99.90
3690;DHT22;1861;50.240;8.596;2023-11-18T15:33:28;9.40;99.90
3690;DHT22;1861;50.240;8.596;2023-11-18T15:35:56;9.40;99.90
3690;DHT22;1861;50.240;8.596;2023-11-18T15:38:25;9.40;99.90
3690;DHT22;1861;50.240;8.596;2023-11-18T15:40:54;9.30;99.90
3690;DHT22;1861;50.240;8.596;2023-11-18T15:43:22;9.40;99.90
3690;DHT22;1861;50.240;8.596;2023-11-18T15:45:50;9.40;99.90
3690;DHT22;1861;50.240;8.596;2023-11-18T15:48:18;9.40;99.90
3690;DHT22;1861;50.240;8.596;2023-11-18T15:50:47;9.40;99.90
3690;DHT22;1861;50.240;8.596;2023-11-18T15:53:16;9.40;99.90
3690;DHT22;1861;50.240;8.596;2023-11-18T15:55:47;9.40;99.90
3690;DHT22;1861;50.240;8.596;2023-11-18T15:58:16;9.40;99.90
3690;DHT22;1861;50.240;8.596;2023-11-18T16:00:45;9.40;99.90
3690;DHT22;1861;50.240;8.596;2023-11-18T16:03:14;9.30;99.90
3690;DHT22;1861;50.240;8.596;2023-11-18T16:05:42;9.40;99.90
3690;DHT22;1861;50.240;8.596;2023-11-18T16:08:10;9.40;99.90
3690;DHT22;1861;50.240;8.596;2023-11-18T16:10:38;9.40;99.90
3690;DHT22;1861;50.240;8.596;2023-11-18T16:13:08;9.40;99.90
3690;DHT22;1861;50.240;8.596;2023-11-18T16:15:36;9.40;99.90
3690;DHT22;1861;50.240;8.596;2023-11-18T16:18:05;9.40;99.90
3690;DHT22;1861;50.240;8.596;2023-11-18T16:20:33;9.40;99.90
3690;DHT22;1861;50.240;8.596;2023-11-18T16:23:02;9.40;99.90
3690;DHT22;1861;50.240;8.596;2023-11-18T16:25:32;9.30;99.90
3690;DHT22;1861;50.240;8.596;2023-11-18T16:28:02;9.40;99.90
3690;DHT22;1861;50.240;8.596;2023-11-18T16:30:33;9.40;99.90
3690;DHT22;1861;50.240;8.596;2023-11-18T16:33:01;9.40;99.90
3690;DHT22;1861;50.240;8.596;2023-11-18T16:35:31;9.40;99.90
3690;DHT22;1861;50.240;8.596;2023-11-18T16:37:59;9.50;99.90
3690;DHT22;1861;50.240;8.596;2023-11-18T16:40:28;9.40;99.90